createdAt,value
2017-07-15T00:00:06.074Z,60.70
2017-07-15T00:02:32.427Z,60.90
2017-07-15T00:04:58.823Z,60.00
2017-07-15T00:07:25.188Z,58.80
2017-07-15T00:09:51.562Z,59.50
2017-07-15T00:12:18.710Z,59.40
2017-07-15T00:14:45.093Z,59.40
2017-07-15T00:17:11.609Z,60.00
2017-07-15T00:19:39.548Z,59.60
2017-07-15T00:22:05.884Z,59.20
2017-07-15T00:24:35.316Z,59.10
2017-07-15T00:27:01.686Z,60.20
2017-07-15T00:29:28.126Z,59.30
2017-07-15T00:31:54.518Z,60.40
2017-07-15T00:34:20.921Z,60.30
2017-07-15T00:36:47.321Z,58.50
2017-07-15T00:39:13.676Z,58.50
2017-07-15T00:41:40.088Z,58.80
2017-07-15T00:44:06.467Z,58.60
2017-07-15T00:46:32.822Z,58.60
2017-07-15T00:49:00.088Z,58.20
2017-07-15T00:51:26.526Z,59.20
2017-07-15T00:53:52.991Z,59.10
2017-07-15T00:56:19.424Z,58.20
2017-07-15T00:58:46.541Z,58.60
2017-07-15T01:01:12.918Z,58.50
2017-07-15T01:03:39.345Z,58.60
2017-07-15T01:06:05.709Z,58.80
2017-07-15T01:08:32.033Z,58.70
2017-07-15T01:10:58.444Z,59.40
2017-07-15T01:13:27.466Z,59.30
2017-07-15T01:15:53.935Z,59.10
2017-07-15T01:18:23.571Z,58.50
2017-07-15T01:20:51.081Z,58.60
2017-07-15T01:23:18.244Z,58.50
2017-07-15T01:25:44.650Z,58.60
2017-07-15T01:28:11.015Z,58.60
2017-07-15T01:30:37.350Z,59.10
2017-07-15T01:33:03.678Z,59.70
2017-07-15T01:35:30.789Z,60.70
2017-07-15T01:37:57.139Z,60.60
2017-07-15T01:40:24.233Z,60.50
2017-07-15T01:42:50.601Z,60.40
2017-07-15T01:45:17.003Z,61.60
2017-07-15T01:47:43.381Z,61.20
2017-07-15T01:50:09.698Z,61.10
2017-07-15T01:52:36.067Z,61.40
2017-07-15T01:55:02.470Z,61.60
2017-07-15T01:57:29.578Z,62.30
2017-07-15T01:59:55.925Z,62.30
2017-07-15T02:02:22.257Z,63.10
2017-07-15T02:04:48.574Z,62.80
2017-07-15T02:07:17.192Z,62.70
2017-07-15T02:09:43.583Z,62.40
2017-07-15T02:12:13.941Z,62.30
2017-07-15T02:14:40.278Z,62.00
2017-07-15T02:17:06.629Z,62.20
2017-07-15T02:19:35.319Z,62.40
2017-07-15T02:22:01.705Z,62.00
2017-07-15T02:24:28.133Z,61.80
2017-07-15T02:26:54.560Z,62.80
2017-07-15T02:29:21.986Z,62.40
2017-07-15T02:31:48.311Z,62.00
2017-07-15T02:34:14.644Z,62.30
2017-07-15T02:36:40.973Z,61.70
2017-07-15T02:39:07.405Z,61.40
2017-07-15T02:41:33.772Z,61.40
2017-07-15T02:44:00.096Z,62.50
2017-07-15T02:46:26.401Z,62.30
2017-07-15T02:48:52.730Z,61.50
2017-07-15T02:51:19.103Z,62.10
2017-07-15T02:53:45.817Z,61.80
2017-07-15T02:56:14.413Z,62.50
2017-07-15T02:58:40.790Z,61.70
2017-07-15T03:01:12.845Z,61.70
2017-07-15T03:03:39.197Z,62.30
2017-07-15T03:06:05.573Z,62.20
2017-07-15T03:08:31.948Z,62.10
2017-07-15T03:10:58.293Z,62.00
2017-07-15T03:13:24.632Z,62.30
2017-07-15T03:15:50.990Z,62.20
2017-07-15T03:18:17.428Z,62.70
2017-07-15T03:20:43.854Z,62.00
2017-07-15T03:23:11.260Z,61.20
2017-07-15T03:25:37.629Z,61.20
2017-07-15T03:28:04.093Z,61.50
2017-07-15T03:30:33.990Z,61.20
2017-07-15T03:33:04.465Z,61.80
2017-07-15T03:35:32.068Z,61.70
2017-07-15T03:37:59.233Z,61.70
2017-07-15T03:40:26.322Z,61.80
2017-07-15T03:42:52.693Z,61.70
2017-07-15T03:45:19.021Z,61.10
2017-07-15T03:47:45.383Z,61.10
2017-07-15T03:50:11.730Z,61.40
2017-07-15T03:52:38.071Z,61.40
2017-07-15T03:55:04.411Z,62.30
2017-07-15T03:57:30.702Z,62.10
2017-07-15T03:59:57.014Z,61.90
2017-07-15T04:02:23.357Z,61.90
2017-07-15T04:04:49.670Z,62.10
2017-07-15T04:07:15.996Z,61.60
2017-07-15T04:09:42.385Z,61.40
2017-07-15T04:12:08.751Z,61.80
2017-07-15T04:14:35.851Z,62.00
2017-07-15T04:17:02.204Z,62.00
2017-07-15T04:19:28.576Z,62.90
2017-07-15T04:21:54.905Z,62.60
2017-07-15T04:24:21.218Z,62.10
2017-07-15T04:26:48.272Z,62.00
2017-07-15T04:29:15.200Z,62.00
2017-07-15T04:31:41.969Z,62.00
2017-07-15T04:34:08.311Z,60.70
2017-07-15T04:36:34.637Z,61.60
2017-07-15T04:39:01.115Z,61.20
2017-07-15T04:41:27.445Z,60.60
2017-07-15T04:43:53.841Z,61.10
2017-07-15T04:46:20.217Z,61.90
2017-07-15T04:48:46.573Z,61.50
2017-07-15T04:51:13.647Z,60.60
2017-07-15T04:56:13.253Z,60.80
2017-07-15T04:58:39.666Z,61.40
2017-07-15T05:01:05.977Z,60.80
2017-07-15T05:03:32.317Z,61.30
2017-07-15T05:05:59.392Z,61.20
2017-07-15T05:08:25.706Z,61.20
2017-07-15T05:10:52.085Z,61.70
2017-07-15T05:13:19.933Z,61.40
2017-07-15T05:15:46.257Z,61.00
2017-07-15T05:18:14.280Z,60.80
2017-07-15T05:20:40.632Z,61.20
2017-07-15T05:23:13.898Z,60.70
2017-07-15T05:25:40.217Z,61.20
2017-07-15T05:28:10.837Z,61.20
2017-07-15T05:30:37.935Z,61.40
2017-07-15T05:33:04.286Z,61.30
2017-07-15T05:35:31.409Z,60.30
2017-07-15T05:37:57.736Z,60.70
2017-07-15T05:40:24.070Z,61.10
2017-07-15T05:42:51.569Z,61.40
2017-07-15T05:45:18.004Z,61.00
2017-07-15T05:47:44.347Z,61.20
2017-07-15T05:50:10.705Z,60.70
2017-07-15T05:52:37.072Z,61.00
2017-07-15T05:55:06.845Z,61.30
2017-07-15T05:57:33.156Z,61.60
2017-07-15T06:00:02.685Z,60.90
2017-07-15T06:02:29.042Z,60.10
2017-07-15T06:04:55.352Z,60.40
2017-07-15T06:07:21.842Z,60.60
2017-07-15T06:09:48.176Z,60.40
2017-07-15T06:12:14.502Z,60.40
2017-07-15T06:14:40.823Z,60.70
2017-07-15T06:17:07.201Z,60.60
2017-07-15T06:19:33.646Z,60.80
2017-07-15T06:22:00.033Z,60.30
2017-07-15T06:24:26.766Z,59.70
2017-07-15T06:26:53.108Z,59.60
2017-07-15T06:29:19.486Z,59.60
2017-07-15T06:31:45.811Z,58.10
2017-07-15T06:34:12.552Z,60.20
2017-07-15T06:36:38.889Z,59.50
2017-07-15T06:39:05.290Z,61.10
2017-07-15T06:41:31.651Z,59.70
2017-07-15T06:43:58.122Z,59.60
2017-07-15T06:46:24.454Z,59.60
2017-07-15T06:48:50.825Z,59.10
2017-07-15T06:51:17.157Z,58.40
2017-07-15T06:53:43.469Z,58.90
2017-07-15T06:56:10.149Z,59.00
2017-07-15T06:58:36.465Z,59.80
2017-07-15T07:01:03.840Z,59.30
2017-07-15T07:03:30.185Z,58.40
2017-07-15T07:05:56.528Z,57.80
2017-07-15T07:08:22.852Z,57.40
2017-07-15T07:10:52.121Z,58.20
2017-07-15T07:13:18.572Z,58.30
2017-07-15T07:15:44.928Z,58.20
2017-07-15T07:18:11.277Z,57.30
2017-07-15T07:20:37.602Z,57.50
2017-07-15T07:23:03.966Z,57.20
2017-07-15T07:25:30.621Z,57.10
2017-07-15T07:27:56.984Z,57.20
2017-07-15T07:30:23.333Z,56.90
2017-07-15T07:32:51.097Z,57.50
2017-07-15T07:35:17.443Z,56.70
2017-07-15T07:37:43.784Z,57.50
2017-07-15T07:40:10.125Z,56.20
2017-07-15T07:42:36.502Z,56.50
2017-07-15T07:45:02.884Z,56.20
2017-07-15T07:47:31.086Z,56.60
2017-07-15T07:49:57.458Z,56.60
2017-07-15T07:52:23.779Z,55.90
2017-07-15T07:54:50.122Z,56.10
2017-07-15T07:57:17.203Z,56.00
2017-07-15T07:59:43.513Z,56.00
2017-07-15T08:02:09.862Z,56.20
2017-07-15T08:04:36.208Z,56.00
2017-07-15T08:07:02.565Z,55.80
2017-07-15T08:09:28.903Z,54.70
2017-07-15T08:11:55.229Z,53.70
2017-07-15T08:14:21.566Z,54.30
2017-07-15T08:16:54.581Z,53.30
2017-07-15T08:19:22.117Z,55.80
2017-07-15T08:21:48.473Z,54.80
2017-07-15T08:24:15.540Z,53.90
2017-07-15T08:26:42.496Z,53.80
2017-07-15T08:29:14.853Z,53.80
2017-07-15T08:31:41.272Z,53.60
2017-07-15T08:34:08.562Z,54.10
2017-07-15T08:36:35.137Z,53.90
2017-07-15T08:39:01.745Z,55.30
2017-07-15T08:41:28.261Z,54.40
2017-07-15T08:43:55.642Z,53.60
2017-07-15T08:46:22.196Z,53.40
2017-07-15T08:48:48.748Z,52.40
2017-07-15T08:51:15.285Z,52.60
2017-07-15T08:53:41.889Z,55.70
2017-07-15T08:56:08.465Z,52.30
2017-07-15T08:58:35.118Z,53.30
2017-07-15T09:01:01.736Z,51.80
2017-07-15T09:03:28.297Z,51.40
2017-07-15T09:05:54.909Z,51.40
2017-07-15T09:08:22.224Z,52.70
2017-07-15T09:10:48.893Z,52.70
2017-07-15T09:13:15.554Z,51.90
2017-07-15T09:15:44.116Z,53.10
2017-07-15T09:18:10.574Z,52.90
2017-07-15T09:20:36.955Z,52.30
2017-07-15T09:23:04.059Z,53.60
2017-07-15T09:25:32.321Z,53.50
2017-07-15T09:27:58.734Z,53.50
2017-07-15T09:30:25.810Z,53.30
2017-07-15T09:32:52.187Z,52.80
2017-07-15T09:35:18.718Z,53.90
2017-07-15T09:37:45.217Z,53.40
2017-07-15T09:42:44.964Z,51.30
2017-07-15T09:45:11.512Z,51.00
2017-07-15T09:47:38.070Z,51.90
2017-07-15T09:50:04.681Z,53.50
2017-07-15T09:52:31.229Z,51.70
2017-07-15T09:54:57.904Z,49.80
2017-07-15T09:57:26.864Z,50.30
2017-07-15T09:59:53.611Z,50.60
2017-07-15T10:02:20.173Z,48.50
2017-07-15T10:04:46.791Z,49.50
2017-07-15T10:07:13.331Z,48.50
2017-07-15T10:09:39.839Z,46.30
2017-07-15T10:12:06.592Z,46.60
2017-07-15T10:14:44.925Z,49.30
2017-07-15T10:17:11.489Z,48.40
2017-07-15T10:19:47.245Z,45.30
2017-07-15T10:22:18.966Z,45.50
2017-07-15T10:24:45.511Z,47.60
2017-07-15T10:27:12.053Z,47.40
2017-07-15T10:29:38.789Z,45.80
2017-07-15T10:32:05.380Z,46.80
2017-07-15T10:34:31.947Z,46.40
2017-07-15T10:36:59.878Z,47.40
2017-07-15T10:39:26.470Z,46.60
2017-07-15T10:41:53.742Z,46.50
2017-07-15T10:44:20.706Z,46.50
2017-07-15T10:46:47.289Z,46.40
2017-07-15T10:49:13.890Z,46.90
2017-07-15T10:51:40.434Z,47.60
2017-07-15T10:54:07.079Z,47.10
2017-07-15T10:56:33.704Z,47.20
2017-07-15T10:59:00.360Z,47.40
2017-07-15T11:01:27.006Z,45.10
2017-07-15T11:03:54.772Z,46.70
2017-07-15T11:06:21.362Z,46.70
2017-07-15T11:08:47.953Z,46.20
2017-07-15T11:11:14.470Z,47.20
2017-07-15T11:13:40.997Z,46.20
2017-07-15T11:16:07.602Z,44.30
2017-07-15T11:18:34.238Z,45.80
2017-07-15T11:21:01.674Z,45.40
2017-07-15T11:23:28.200Z,45.80
2017-07-15T11:25:54.821Z,46.10
2017-07-15T11:28:21.373Z,46.40
2017-07-15T11:30:48.087Z,47.00
2017-07-15T11:33:14.641Z,46.60
2017-07-15T11:35:41.949Z,45.60
2017-07-15T11:38:08.584Z,45.70
2017-07-15T11:40:35.130Z,45.70
2017-07-15T11:43:01.728Z,44.20
2017-07-15T11:45:28.313Z,43.80
2017-07-15T11:47:54.949Z,46.50
2017-07-15T11:50:22.379Z,44.80
2017-07-15T11:52:49.395Z,41.40
2017-07-15T11:55:15.963Z,43.30
2017-07-15T11:57:42.541Z,45.50
2017-07-15T12:00:09.118Z,43.90
2017-07-15T12:02:36.021Z,45.70
2017-07-15T12:05:02.624Z,42.60
2017-07-15T12:07:29.201Z,43.00
2017-07-15T12:09:55.792Z,43.20
2017-07-15T12:12:22.374Z,43.90
2017-07-15T12:14:48.939Z,43.90
2017-07-15T12:17:15.517Z,41.70
2017-07-15T12:19:43.444Z,42.80
2017-07-15T12:22:10.060Z,42.90
2017-07-15T12:24:40.346Z,41.00
2017-07-15T12:27:06.929Z,40.80
2017-07-15T12:29:33.753Z,40.50
2017-07-15T12:32:00.348Z,43.10
2017-07-15T12:34:26.892Z,41.50
2017-07-15T12:36:56.470Z,40.90
2017-07-15T12:39:23.032Z,41.00
2017-07-15T12:41:49.618Z,42.40
2017-07-15T12:44:16.493Z,40.40
2017-07-15T12:46:43.141Z,39.30
2017-07-15T12:49:09.908Z,41.20
2017-07-15T12:51:36.685Z,39.40
2017-07-15T12:54:03.248Z,38.40
2017-07-15T12:56:30.185Z,38.20
2017-07-15T12:58:56.747Z,39.50
2017-07-15T13:01:41.020Z,39.40
2017-07-15T13:04:10.975Z,37.50
2017-07-15T13:06:37.595Z,37.30
2017-07-15T13:09:04.178Z,37.70
2017-07-15T13:11:30.757Z,39.40
2017-07-15T13:13:59.213Z,36.60
2017-07-15T13:16:38.719Z,38.60
2017-07-15T13:19:06.742Z,36.40
2017-07-15T13:21:34.056Z,36.40
2017-07-15T13:24:00.953Z,33.90
2017-07-15T13:26:28.648Z,35.20
2017-07-15T13:28:55.033Z,34.80
2017-07-15T13:31:24.422Z,35.80
2017-07-15T13:33:50.872Z,35.60
2017-07-15T13:36:17.689Z,34.50
2017-07-15T13:38:44.123Z,34.90
2017-07-15T13:41:10.472Z,34.90
2017-07-15T13:43:36.812Z,35.00
2017-07-15T13:46:03.141Z,34.70
2017-07-15T13:48:30.229Z,35.70
2017-07-15T13:50:56.587Z,35.80
2017-07-15T13:53:23.017Z,34.60
2017-07-15T13:55:49.373Z,35.60
2017-07-15T13:58:15.745Z,35.60
2017-07-15T14:00:42.854Z,36.00
2017-07-15T14:03:09.187Z,36.00
2017-07-15T14:05:39.889Z,35.70
2017-07-15T14:08:15.975Z,35.30
2017-07-15T14:10:47.522Z,35.30
2017-07-15T14:13:13.873Z,35.40
2017-07-15T14:15:40.349Z,34.40
2017-07-15T14:18:06.755Z,34.60
2017-07-15T14:20:33.087Z,34.60
2017-07-15T14:23:02.492Z,34.90
2017-07-15T14:25:28.841Z,35.80
2017-07-15T14:30:44.240Z,34.60
2017-07-15T14:33:10.785Z,35.40
2017-07-15T14:35:37.251Z,32.00
2017-07-15T14:38:03.914Z,31.80
2017-07-15T14:40:31.342Z,33.80
2017-07-15T14:42:58.004Z,34.90
2017-07-15T14:45:26.834Z,36.70
2017-07-15T14:47:53.419Z,34.40
2017-07-15T14:50:20.086Z,35.50
2017-07-15T14:52:46.734Z,35.20
2017-07-15T14:55:13.256Z,35.80
2017-07-15T14:57:39.874Z,34.20
2017-07-15T15:00:06.333Z,33.90
2017-07-15T15:02:33.018Z,34.90
2017-07-15T15:04:59.386Z,34.60
2017-07-15T15:07:26.035Z,32.60
2017-07-15T15:09:52.456Z,35.00
2017-07-15T15:12:18.932Z,36.10
2017-07-15T15:14:45.359Z,33.60
2017-07-15T15:17:11.872Z,33.60
2017-07-15T15:19:42.139Z,32.70
2017-07-15T15:22:09.208Z,36.10
2017-07-15T15:24:36.730Z,36.00
2017-07-15T15:27:03.481Z,35.60
2017-07-15T15:29:30.457Z,35.10
2017-07-15T15:31:57.184Z,34.30
2017-07-15T15:34:23.861Z,37.20
2017-07-15T15:36:51.301Z,32.20
2017-07-15T15:39:18.002Z,32.90
2017-07-15T15:41:44.878Z,33.10
2017-07-15T15:44:11.602Z,34.60
2017-07-15T15:46:38.182Z,33.80
2017-07-15T15:49:04.888Z,33.90
2017-07-15T15:51:31.553Z,33.90
2017-07-15T15:54:00.517Z,36.50
2017-07-15T15:56:27.126Z,35.40
2017-07-15T15:58:53.650Z,35.10
2017-07-15T16:01:20.230Z,35.40
2017-07-15T16:03:48.112Z,37.90
2017-07-15T16:06:15.391Z,35.00
2017-07-15T16:08:42.603Z,35.50
2017-07-15T16:11:14.120Z,34.00
2017-07-15T16:13:43.776Z,36.60
2017-07-15T16:16:13.944Z,36.20
2017-07-15T16:18:48.040Z,35.30
2017-07-15T16:21:16.406Z,35.70
2017-07-15T16:23:43.591Z,34.30
2017-07-15T16:26:10.181Z,36.10
2017-07-15T16:28:36.756Z,34.90
2017-07-15T16:31:03.284Z,36.10
2017-07-15T16:33:29.837Z,35.10
2017-07-15T16:35:56.525Z,37.00
2017-07-15T16:38:23.949Z,35.00
2017-07-15T16:40:50.508Z,35.00
2017-07-15T16:43:17.122Z,33.40
2017-07-15T16:45:43.717Z,34.40
2017-07-15T16:48:11.487Z,35.50
2017-07-15T16:50:38.069Z,35.10
2017-07-15T16:53:04.777Z,37.30
2017-07-15T16:55:31.326Z,36.30
2017-07-15T16:57:58.966Z,37.00
2017-07-15T17:00:25.560Z,35.10
2017-07-15T17:02:52.121Z,36.60
2017-07-15T17:05:18.752Z,36.10
2017-07-15T17:07:46.553Z,37.10
2017-07-15T17:10:13.150Z,37.50
2017-07-15T17:12:39.770Z,37.80
2017-07-15T17:15:06.358Z,37.00
2017-07-15T17:17:32.914Z,38.70
2017-07-15T17:19:59.508Z,37.20
2017-07-15T17:22:29.701Z,37.20
2017-07-15T17:24:56.288Z,35.80
2017-07-15T17:27:22.884Z,37.10
2017-07-15T17:29:49.464Z,36.30
2017-07-15T17:32:16.825Z,38.90
2017-07-15T17:34:43.430Z,38.90
2017-07-15T17:37:11.943Z,37.10
2017-07-15T17:39:38.510Z,40.00
2017-07-15T17:42:05.133Z,38.30
2017-07-15T17:44:31.724Z,39.00
2017-07-15T17:46:58.281Z,38.20
2017-07-15T17:49:24.899Z,38.00
2017-07-15T17:51:54.792Z,37.70
2017-07-15T17:54:21.372Z,37.10
2017-07-15T17:56:47.941Z,37.80
2017-07-15T17:59:14.499Z,38.60
2017-07-15T18:01:41.144Z,37.50
2017-07-15T18:04:08.137Z,39.40
2017-07-15T18:06:35.451Z,39.00
2017-07-15T18:09:02.076Z,38.90
2017-07-15T18:11:29.377Z,41.10
2017-07-15T18:13:56.036Z,40.40
2017-07-15T18:16:22.584Z,40.80
2017-07-15T18:18:49.105Z,39.60
2017-07-15T18:21:15.853Z,39.60
2017-07-15T18:23:42.443Z,40.40
2017-07-15T18:26:09.781Z,40.80
2017-07-15T18:28:36.333Z,40.70
2017-07-15T18:31:02.930Z,38.90
2017-07-15T18:33:29.485Z,40.80
2017-07-15T18:38:29.564Z,40.10
2017-07-15T18:40:56.189Z,40.40
2017-07-15T18:43:22.750Z,40.60
2017-07-15T18:45:49.358Z,39.50
2017-07-15T18:48:15.964Z,40.10
2017-07-15T18:50:43.093Z,39.30
2017-07-15T18:53:09.674Z,41.10
2017-07-15T18:55:36.221Z,41.70
2017-07-15T18:58:03.512Z,42.20
2017-07-15T19:00:30.131Z,42.20
2017-07-15T19:02:56.686Z,42.70
2017-07-15T19:05:23.272Z,41.50
2017-07-15T19:07:49.861Z,42.80
2017-07-15T19:10:16.394Z,44.00
2017-07-15T19:12:42.906Z,45.10
2017-07-15T19:15:09.493Z,44.50
2017-07-15T19:17:36.062Z,46.00
2017-07-15T19:20:02.668Z,45.10
2017-07-15T19:22:29.219Z,45.30
2017-07-15T19:24:55.986Z,44.40
2017-07-15T19:27:22.526Z,44.20
2017-07-15T19:29:49.093Z,45.90
2017-07-15T19:32:15.653Z,45.00
2017-07-15T19:34:42.996Z,45.20
2017-07-15T19:37:09.537Z,45.20
2017-07-15T19:39:36.022Z,46.50
2017-07-15T19:42:03.335Z,46.30
2017-07-15T19:44:29.850Z,46.30
2017-07-15T19:46:56.390Z,45.00
2017-07-15T19:49:22.957Z,45.60
2017-07-15T19:51:49.520Z,47.60
2017-07-15T19:54:17.194Z,48.80
2017-07-15T19:56:43.789Z,48.80
2017-07-15T19:59:10.344Z,47.10
2017-07-15T20:01:36.922Z,48.30
2017-07-15T20:04:03.469Z,47.80
2017-07-15T20:06:30.054Z,47.90
2017-07-15T20:08:56.611Z,48.40
2017-07-15T20:11:24.013Z,49.30
2017-07-15T20:13:51.437Z,48.10
2017-07-15T20:16:18.125Z,48.10
2017-07-15T20:18:44.807Z,48.50
2017-07-15T20:21:11.542Z,50.80
2017-07-15T20:23:38.999Z,50.60
2017-07-15T20:26:06.332Z,50.00
2017-07-15T20:28:33.386Z,49.60
2017-07-15T20:31:00.491Z,49.70
2017-07-15T20:33:27.670Z,49.80
2017-07-15T20:36:00.945Z,49.20
2017-07-15T20:38:28.749Z,49.30
2017-07-15T20:40:55.969Z,50.70
2017-07-15T20:43:23.432Z,49.60
2017-07-15T20:45:50.212Z,49.40
2017-07-15T20:48:17.250Z,51.40
2017-07-15T20:50:45.422Z,50.60
2017-07-15T20:53:31.528Z,52.60
2017-07-15T20:55:58.078Z,50.80
2017-07-15T20:58:24.471Z,52.30
2017-07-15T21:00:50.972Z,51.00
2017-07-15T21:03:17.802Z,51.20
2017-07-15T21:05:46.853Z,50.80
2017-07-15T21:08:13.393Z,51.30
2017-07-15T21:10:39.738Z,51.50
2017-07-15T21:13:06.130Z,52.90
2017-07-15T21:15:32.465Z,52.70
2017-07-15T21:17:58.797Z,51.50
2017-07-15T21:20:25.546Z,51.50
2017-07-15T21:22:51.891Z,52.80
2017-07-15T21:25:18.254Z,51.90
2017-07-15T21:27:45.341Z,51.90
2017-07-15T21:30:14.901Z,51.90
2017-07-15T21:32:41.254Z,54.00
2017-07-15T21:35:08.049Z,52.50
2017-07-15T21:37:34.438Z,52.60
2017-07-15T21:40:00.805Z,52.30
2017-07-15T21:42:27.201Z,51.20
2017-07-15T21:44:53.541Z,53.30
2017-07-15T21:47:20.156Z,51.50
2017-07-15T21:49:46.511Z,52.90
2017-07-15T21:52:12.933Z,52.40
2017-07-15T21:54:40.045Z,53.10
2017-07-15T21:57:06.388Z,53.10
2017-07-15T21:59:33.493Z,52.30
2017-07-15T22:01:59.893Z,52.00
2017-07-15T22:04:26.264Z,50.10
2017-07-15T22:06:52.630Z,51.30
2017-07-15T22:09:19.101Z,51.70
2017-07-15T22:11:45.469Z,51.80
2017-07-15T22:14:11.825Z,53.50
2017-07-15T22:16:38.609Z,52.30
2017-07-15T22:19:04.987Z,51.90
2017-07-15T22:21:31.409Z,53.10
2017-07-15T22:23:57.889Z,51.90
2017-07-15T22:26:24.223Z,51.30
2017-07-15T22:28:51.606Z,53.00
2017-07-15T22:31:17.985Z,52.80
2017-07-15T22:33:45.076Z,51.70
2017-07-15T22:36:11.504Z,51.50
2017-07-15T22:38:37.889Z,52.20
2017-07-15T22:41:04.321Z,52.80
2017-07-15T22:43:30.803Z,50.90
2017-07-15T22:45:57.219Z,52.60
2017-07-15T22:48:23.582Z,52.50
2017-07-15T22:50:49.932Z,51.30
2017-07-15T22:53:16.270Z,51.70
2017-07-15T22:55:42.614Z,52.40
2017-07-15T22:58:09.057Z,52.20
2017-07-15T23:00:35.378Z,52.30
2017-07-15T23:03:01.797Z,51.40
2017-07-15T23:05:28.136Z,52.80
2017-07-15T23:07:54.492Z,53.40
2017-07-15T23:10:21.563Z,52.80
2017-07-15T23:12:47.975Z,54.30
2017-07-15T23:15:14.330Z,54.30
2017-07-15T23:17:40.665Z,53.00
2017-07-15T23:20:07.014Z,52.50
2017-07-15T23:22:33.345Z,53.40
2017-07-15T23:24:59.765Z,53.30
2017-07-15T23:27:26.114Z,54.00
2017-07-15T23:29:52.471Z,54.20
2017-07-15T23:32:18.805Z,53.60
2017-07-15T23:34:45.226Z,53.10
2017-07-15T23:37:11.563Z,52.60
2017-07-15T23:39:37.881Z,53.50
2017-07-15T23:42:04.477Z,53.90
2017-07-15T23:44:30.827Z,54.00
2017-07-15T23:46:57.605Z,53.30
2017-07-15T23:49:23.933Z,54.00
2017-07-15T23:51:50.253Z,53.60
2017-07-15T23:54:17.345Z,52.90
2017-07-15T23:56:43.705Z,53.00
2017-07-15T23:59:10.078Z,52.90
